createdAt,value
2019-01-26T00:04:53.574Z,9.75
2019-01-26T00:07:21.528Z,10.03
2019-01-26T00:09:49.799Z,10.20
2019-01-26T00:12:17.772Z,10.70
2019-01-26T00:14:45.669Z,8.73
2019-01-26T00:17:13.720Z,10.82
2019-01-26T00:19:41.709Z,10.72
2019-01-26T00:22:09.672Z,10.20
2019-01-26T00:24:37.728Z,9.85
2019-01-26T00:27:05.715Z,10.50
2019-01-26T00:29:33.673Z,10.98
2019-01-26T00:32:01.674Z,9.08
2019-01-26T00:34:29.707Z,10.00
2019-01-26T00:36:57.775Z,10.20
2019-01-26T00:39:25.748Z,9.85
2019-01-26T00:41:53.737Z,9.50
2019-01-26T00:44:21.708Z,9.60
2019-01-26T00:46:49.587Z,10.20
2019-01-26T00:49:17.555Z,9.40
2019-01-26T00:51:45.515Z,9.28
2019-01-26T00:54:13.439Z,8.95
2019-01-26T00:56:41.436Z,10.00
2019-01-26T00:59:09.417Z,9.25
2019-01-26T01:04:19.471Z,9.28
2019-01-26T01:06:47.434Z,10.35
2019-01-26T01:09:15.400Z,9.40
2019-01-26T01:14:31.953Z,10.05
2019-01-26T01:16:59.895Z,10.00
2019-01-26T01:19:27.882Z,10.10
2019-01-26T01:21:55.845Z,10.10
2019-01-26T01:24:23.805Z,9.68
2019-01-26T01:26:51.788Z,8.73
2019-01-26T01:29:19.756Z,9.83
2019-01-26T01:31:47.720Z,9.80
2019-01-26T01:34:15.878Z,10.53
2019-01-26T01:36:43.872Z,10.20
2019-01-26T01:39:11.815Z,10.23
2019-01-26T01:41:58.766Z,13.80
2019-01-26T01:44:26.735Z,13.50
2019-01-26T01:46:54.705Z,17.35
2019-01-26T01:49:22.636Z,17.92
2019-01-26T01:54:33.870Z,17.20
2019-01-26T01:57:01.914Z,17.75
2019-01-26T01:59:29.896Z,18.80
2019-01-26T02:01:57.863Z,17.70
2019-01-26T02:04:25.815Z,20.30
2019-01-26T02:06:53.805Z,17.42
2019-01-26T02:09:21.875Z,18.95
2019-01-26T02:11:49.830Z,17.80
2019-01-26T02:14:17.915Z,18.82
2019-01-26T02:16:50.059Z,19.73
2019-01-26T02:19:15.709Z,17.82
2019-01-26T02:21:43.839Z,18.90
2019-01-26T02:24:11.835Z,18.40
2019-01-26T02:26:39.818Z,19.40
2019-01-26T02:29:07.775Z,20.35
2019-01-26T02:31:35.741Z,19.45
2019-01-26T02:34:03.698Z,18.12
2019-01-26T02:36:31.668Z,23.02
2019-01-26T02:38:59.658Z,21.30
2019-01-26T02:41:27.604Z,19.50
2019-01-26T02:43:55.590Z,19.40
2019-01-26T02:46:23.676Z,20.57
2019-01-26T02:48:51.724Z,19.55
2019-01-26T02:51:19.685Z,20.72
2019-01-26T02:53:47.708Z,19.70
2019-01-26T02:56:15.649Z,21.33
2019-01-26T02:58:43.597Z,19.48
2019-01-26T03:01:11.585Z,20.90
2019-01-26T03:03:39.521Z,19.98
2019-01-26T03:08:49.610Z,20.17
2019-01-26T03:11:17.652Z,20.08
2019-01-26T03:16:27.772Z,20.62
2019-01-26T03:18:56.150Z,21.82
2019-01-26T03:21:24.111Z,21.42
2019-01-26T03:23:52.284Z,20.48
2019-01-26T03:26:20.235Z,20.88
2019-01-26T03:28:48.205Z,20.55
2019-01-26T03:31:16.208Z,21.42
2019-01-26T03:36:46.889Z,20.77
2019-01-26T03:39:15.247Z,21.23
2019-01-26T03:41:43.193Z,19.27
2019-01-26T03:44:11.131Z,21.00
2019-01-26T03:46:39.127Z,23.10
2019-01-26T03:49:07.117Z,23.10
2019-01-26T03:51:35.190Z,21.33
2019-01-26T03:54:03.142Z,20.95
2019-01-26T03:56:31.196Z,19.80
2019-01-26T03:58:59.460Z,21.27
2019-01-26T04:01:27.538Z,20.68
2019-01-26T04:03:55.502Z,20.32
2019-01-26T04:06:42.515Z,19.55
2019-01-26T04:09:10.529Z,19.40
2019-01-26T04:11:38.480Z,20.65
2019-01-26T04:14:25.764Z,19.32
2019-01-26T04:16:53.703Z,20.88
2019-01-26T04:19:21.621Z,20.82
2019-01-26T04:21:49.700Z,21.90
2019-01-26T04:24:17.762Z,22.32
2019-01-26T04:26:45.845Z,21.85
2019-01-26T04:29:13.797Z,22.87
2019-01-26T04:31:41.787Z,21.27
2019-01-26T04:34:10.301Z,19.30
2019-01-26T04:36:38.220Z,21.23
2019-01-26T04:39:07.589Z,19.95
2019-01-26T04:41:35.618Z,19.75
2019-01-26T04:44:03.681Z,20.50
2019-01-26T04:46:31.776Z,18.42
2019-01-26T04:48:59.691Z,18.77
2019-01-26T04:51:27.666Z,19.15
2019-01-26T04:53:55.644Z,18.30
2019-01-26T04:56:23.684Z,17.65
2019-01-26T05:01:38.823Z,18.17
2019-01-26T05:04:06.769Z,17.73
2019-01-26T05:06:34.776Z,17.30
2019-01-26T05:09:21.776Z,17.12
2019-01-26T05:14:50.858Z,17.52
2019-01-26T05:17:18.889Z,18.70
2019-01-26T05:20:05.810Z,17.37
2019-01-26T05:25:19.231Z,16.80
2019-01-26T05:30:29.578Z,17.27
2019-01-26T05:32:57.564Z,16.45
2019-01-26T05:35:25.620Z,17.75
2019-01-26T05:37:53.585Z,16.82
2019-01-26T05:40:21.551Z,16.93
2019-01-26T05:42:49.519Z,17.70
2019-01-26T05:45:18.984Z,18.55
2019-01-26T05:47:49.064Z,16.85
2019-01-26T05:50:18.102Z,20.17
2019-01-26T05:52:45.998Z,20.20
2019-01-26T05:55:14.239Z,17.40
2019-01-26T05:57:42.279Z,17.52
2019-01-26T06:00:11.674Z,18.25
2019-01-26T06:02:39.651Z,18.17
2019-01-26T06:05:07.592Z,18.00
2019-01-26T06:07:35.891Z,19.10
2019-01-26T06:10:24.398Z,19.10
2019-01-26T06:12:52.445Z,20.08
2019-01-26T06:15:20.466Z,20.15
2019-01-26T06:17:54.772Z,19.15
2019-01-26T06:20:18.079Z,19.35
2019-01-26T06:22:46.009Z,18.32
2019-01-26T06:25:14.317Z,18.70
2019-01-26T06:27:42.263Z,20.02
2019-01-26T06:30:29.189Z,18.30
2019-01-26T06:32:57.175Z,20.45
2019-01-26T06:35:25.093Z,20.20
2019-01-26T06:37:53.084Z,18.10
2019-01-26T06:40:41.644Z,20.62
2019-01-26T06:43:09.614Z,18.80
2019-01-26T06:45:37.618Z,19.77
2019-01-26T06:48:05.631Z,19.23
2019-01-26T06:50:33.607Z,19.87
2019-01-26T06:53:01.571Z,20.00
2019-01-26T06:55:29.590Z,19.23
2019-01-26T06:57:57.602Z,19.05
2019-01-26T07:03:28.814Z,19.12
2019-01-26T07:06:03.828Z,18.87
2019-01-26T07:08:45.661Z,19.37
2019-01-26T07:11:02.208Z,19.57
2019-01-26T07:13:31.134Z,21.20
2019-01-26T07:18:48.460Z,18.20
2019-01-26T07:21:16.393Z,20.68
2019-01-26T07:23:44.405Z,19.40
2019-01-26T07:26:12.362Z,20.43
2019-01-26T07:28:40.307Z,32.10
2019-01-26T07:31:08.312Z,40.73
2019-01-26T07:33:36.281Z,27.32
2019-01-26T07:36:04.317Z,28.80
2019-01-26T07:38:32.951Z,26.82
2019-01-26T07:43:44.536Z,23.10
2019-01-26T07:46:12.488Z,24.00
2019-01-26T07:48:40.560Z,23.18
2019-01-26T07:51:08.516Z,22.90
2019-01-26T07:53:36.515Z,21.90
2019-01-26T07:59:12.184Z,20.10
2019-01-26T08:01:40.122Z,21.93
2019-01-26T08:04:08.119Z,23.55
2019-01-26T08:06:36.059Z,25.35
2019-01-26T08:12:08.539Z,20.48
2019-01-26T08:14:36.527Z,21.70
2019-01-26T08:17:04.521Z,21.57
2019-01-26T08:19:51.468Z,21.25
2019-01-26T08:22:19.490Z,19.95
2019-01-26T08:27:29.662Z,20.30
2019-01-26T08:29:57.638Z,20.32
2019-01-26T08:32:25.589Z,21.73
2019-01-26T08:34:53.575Z,22.45
2019-01-26T08:37:21.638Z,22.52
2019-01-26T08:39:49.598Z,24.98
2019-01-26T08:42:17.598Z,29.00
2019-01-26T08:44:45.528Z,23.83
2019-01-26T08:47:13.642Z,23.62
2019-01-26T08:49:41.682Z,22.85
2019-01-26T08:52:09.687Z,21.87
2019-01-26T08:54:37.646Z,20.77
2019-01-26T08:59:47.817Z,20.68
2019-01-26T09:02:34.737Z,20.97
2019-01-26T09:05:02.792Z,20.20
2019-01-26T09:07:30.839Z,23.10
2019-01-26T09:09:58.833Z,20.37
2019-01-26T09:12:26.776Z,22.20
2019-01-26T09:14:54.778Z,21.73
2019-01-26T09:17:22.713Z,21.45
2019-01-26T09:19:50.687Z,22.32
2019-01-26T09:22:18.710Z,21.23
2019-01-26T09:24:46.692Z,21.23
2019-01-26T09:30:22.251Z,23.07
2019-01-26T09:32:50.287Z,22.15
2019-01-26T09:35:18.272Z,23.80
2019-01-26T09:37:46.246Z,22.17
2019-01-26T09:40:15.009Z,23.38
2019-01-26T09:42:43.221Z,22.95
2019-01-26T09:45:11.889Z,23.57
2019-01-26T09:47:39.932Z,24.10
2019-01-26T09:50:08.481Z,22.95
2019-01-26T09:52:36.455Z,23.42
2019-01-26T09:55:05.089Z,25.70
2019-01-26T09:57:33.092Z,21.60
2019-01-26T10:00:01.000Z,24.85
2019-01-26T10:02:29.100Z,27.05
2019-01-26T10:04:57.155Z,27.57
2019-01-26T10:07:25.171Z,25.60
2019-01-26T10:09:53.090Z,26.82
2019-01-26T10:12:21.185Z,26.00
2019-01-26T10:14:49.113Z,26.07
2019-01-26T10:17:17.122Z,23.87
2019-01-26T10:19:45.182Z,27.47
2019-01-26T10:22:13.373Z,24.23
2019-01-26T10:27:28.472Z,23.40
2019-01-26T10:29:56.412Z,24.53
2019-01-26T10:32:44.816Z,24.50
2019-01-26T10:35:12.763Z,24.23
2019-01-26T10:37:40.692Z,24.73
2019-01-26T10:43:05.947Z,23.50
2019-01-26T10:45:33.932Z,24.20
2019-01-26T10:48:01.936Z,25.33
2019-01-26T10:50:29.923Z,27.10
2019-01-26T10:53:16.863Z,26.20
2019-01-26T10:55:45.109Z,25.37
2019-01-26T10:58:13.184Z,26.23
2019-01-26T11:00:42.134Z,24.60
2019-01-26T11:03:10.249Z,25.47
2019-01-26T11:05:38.397Z,25.90
2019-01-26T11:08:06.525Z,26.03
2019-01-26T11:10:34.541Z,28.50
2019-01-26T11:13:02.543Z,27.03
2019-01-26T11:15:30.557Z,27.27
2019-01-26T11:17:58.493Z,25.87
2019-01-26T11:20:26.464Z,27.90
2019-01-26T11:22:54.514Z,25.53
2019-01-26T11:25:22.787Z,28.33
2019-01-26T11:27:50.728Z,26.40
2019-01-26T11:33:07.377Z,28.80
2019-01-26T11:35:35.344Z,27.77
2019-01-26T11:38:03.314Z,28.43
2019-01-26T11:40:31.282Z,27.60
2019-01-26T11:42:59.275Z,27.97
2019-01-26T11:45:46.184Z,27.03
2019-01-26T11:51:21.099Z,29.07
2019-01-26T11:53:49.239Z,29.37
2019-01-26T11:56:23.505Z,27.33
2019-01-26T11:58:51.580Z,28.40
2019-01-26T12:01:38.525Z,29.70
2019-01-26T12:04:25.387Z,26.90
2019-01-26T12:09:36.727Z,30.70
2019-01-26T12:12:05.009Z,31.60
2019-01-26T12:14:32.944Z,28.53
2019-01-26T12:17:00.911Z,29.43
2019-01-26T12:19:28.905Z,28.73
2019-01-26T12:21:56.948Z,31.00
2019-01-26T12:24:25.199Z,28.13
2019-01-26T12:26:53.105Z,36.33
2019-01-26T12:29:21.154Z,30.37
2019-01-26T12:31:49.139Z,30.33
2019-01-26T12:34:19.580Z,31.43
2019-01-26T12:36:47.531Z,29.07
2019-01-26T12:39:15.478Z,30.67
2019-01-26T12:41:43.479Z,32.07
2019-01-26T12:44:11.427Z,28.77
2019-01-26T12:46:39.410Z,29.97
2019-01-26T12:49:07.381Z,28.20
2019-01-26T12:51:35.346Z,29.97
2019-01-26T12:54:03.683Z,31.23
2019-01-26T12:56:31.678Z,29.00
2019-01-26T12:58:59.602Z,27.00
2019-01-26T13:01:27.516Z,27.30
2019-01-26T13:03:55.476Z,30.17
2019-01-26T13:06:23.469Z,25.13
2019-01-26T13:08:51.437Z,27.67
2019-01-26T13:11:21.486Z,25.63
2019-01-26T13:13:49.408Z,28.80
2019-01-26T13:16:18.902Z,27.27
2019-01-26T13:18:46.899Z,25.83
2019-01-26T13:21:14.849Z,25.37
2019-01-26T13:26:25.048Z,27.90
2019-01-26T13:28:53.124Z,29.60
2019-01-26T13:31:21.066Z,30.23
2019-01-26T13:33:49.040Z,26.43
2019-01-26T13:36:17.045Z,27.80
2019-01-26T13:38:44.989Z,25.30
2019-01-26T13:41:12.963Z,25.50
2019-01-26T13:43:40.922Z,25.23
2019-01-26T13:46:08.877Z,27.93
2019-01-26T13:48:57.327Z,25.70
2019-01-26T13:51:25.339Z,24.17
2019-01-26T13:53:53.280Z,22.03
2019-01-26T13:56:21.229Z,22.90
2019-01-26T13:58:49.175Z,24.50
2019-01-26T14:01:17.070Z,23.67
2019-01-26T14:03:45.037Z,22.53
2019-01-26T14:06:13.021Z,23.60
2019-01-26T14:08:40.976Z,24.23
2019-01-26T14:11:09.062Z,23.77
2019-01-26T14:13:37.021Z,25.47
2019-01-26T14:16:05.016Z,24.07
2019-01-26T14:18:33.084Z,23.80
2019-01-26T14:21:01.025Z,23.97
2019-01-26T14:26:11.367Z,23.20
2019-01-26T14:28:40.825Z,22.30
2019-01-26T14:31:09.043Z,23.43
2019-01-26T14:33:37.087Z,21.90
2019-01-26T14:36:04.964Z,19.07
2019-01-26T14:38:32.916Z,22.10
2019-01-26T14:41:01.051Z,21.07
2019-01-26T14:43:29.043Z,37.43
2019-01-26T14:45:57.026Z,24.90
2019-01-26T14:48:24.981Z,23.83
2019-01-26T14:50:52.967Z,24.87
2019-01-26T14:53:20.895Z,20.80
2019-01-26T14:55:48.892Z,19.30
2019-01-26T14:58:16.867Z,19.60
2019-01-26T15:00:44.876Z,19.63
2019-01-26T15:03:12.780Z,19.63
2019-01-26T15:05:40.767Z,18.33
2019-01-26T15:08:08.769Z,20.57
2019-01-26T15:10:36.804Z,19.30
2019-01-26T15:13:04.770Z,20.65
2019-01-26T15:15:32.740Z,22.27
2019-01-26T15:18:00.713Z,20.50
2019-01-26T15:20:29.924Z,20.68
2019-01-26T15:22:57.879Z,22.17
2019-01-26T15:25:25.968Z,21.93
2019-01-26T15:27:53.869Z,21.05
2019-01-26T15:33:05.850Z,20.43
2019-01-26T15:35:33.908Z,20.90
2019-01-26T15:38:01.879Z,22.00
2019-01-26T15:40:29.776Z,24.60
2019-01-26T15:42:57.817Z,24.43
2019-01-26T15:45:29.888Z,21.23
2019-01-26T15:47:57.866Z,22.23
2019-01-26T15:50:25.801Z,24.43
2019-01-26T15:52:53.781Z,24.80
2019-01-26T15:55:22.398Z,25.10
2019-01-26T15:57:50.437Z,25.97
2019-01-26T16:00:37.532Z,27.97
2019-01-26T16:03:05.643Z,27.70
2019-01-26T16:05:33.600Z,29.05
2019-01-26T16:08:01.575Z,28.95
2019-01-26T16:10:29.530Z,22.70
2019-01-26T16:12:57.495Z,25.40
2019-01-26T16:15:26.380Z,24.90
2019-01-26T16:17:54.347Z,21.23
2019-01-26T16:20:22.552Z,23.00
2019-01-26T16:22:50.626Z,23.33
2019-01-26T16:25:18.700Z,24.33
2019-01-26T16:30:33.819Z,23.10
2019-01-26T16:33:01.824Z,23.73
2019-01-26T16:35:29.793Z,23.45
2019-01-26T16:37:57.782Z,23.37
2019-01-26T16:40:27.077Z,23.45
2019-01-26T16:42:55.051Z,26.60
2019-01-26T16:45:24.000Z,25.50
2019-01-26T16:48:10.937Z,25.85
2019-01-26T16:50:39.082Z,26.07
2019-01-26T16:53:07.103Z,24.02
2019-01-26T16:55:35.117Z,29.30
2019-01-26T16:58:03.084Z,31.35
2019-01-26T17:00:50.092Z,26.60
2019-01-26T17:03:18.075Z,26.82
2019-01-26T17:05:45.969Z,25.85
2019-01-26T17:08:14.053Z,25.43
2019-01-26T17:10:42.034Z,39.30
2019-01-26T17:13:10.115Z,30.95
2019-01-26T17:15:38.064Z,29.70
2019-01-26T17:18:13.489Z,31.97
2019-01-26T17:20:36.297Z,28.60
2019-01-26T17:23:04.265Z,28.75
2019-01-26T17:25:32.324Z,26.40
2019-01-26T17:28:00.266Z,25.80
2019-01-26T17:30:29.540Z,25.45
2019-01-26T17:32:57.515Z,23.12
2019-01-26T17:35:25.529Z,23.52
2019-01-26T17:37:53.462Z,23.05
2019-01-26T17:40:22.184Z,21.10
2019-01-26T17:42:50.503Z,54.98
2019-01-26T17:45:18.797Z,26.40
2019-01-26T17:47:46.788Z,27.05
2019-01-26T17:50:15.921Z,23.65
2019-01-26T17:55:26.449Z,22.87
2019-01-26T17:57:54.436Z,22.87
2019-01-26T18:05:56.432Z,22.73
2019-01-26T18:08:24.412Z,23.95
2019-01-26T18:10:52.353Z,22.40
2019-01-26T18:13:20.333Z,23.25
2019-01-26T18:15:48.321Z,23.85
2019-01-26T18:18:16.368Z,24.55
2019-01-26T18:20:49.156Z,23.85
2019-01-26T18:28:44.429Z,25.25
2019-01-26T18:31:12.409Z,25.75
2019-01-26T18:33:40.338Z,26.55
2019-01-26T18:36:08.418Z,24.12
2019-01-26T18:38:36.362Z,24.32
2019-01-26T18:41:04.349Z,25.35
2019-01-26T18:43:32.331Z,27.02
2019-01-26T18:46:00.276Z,24.23
2019-01-26T18:48:28.443Z,24.50
2019-01-26T18:51:09.578Z,28.98
2019-01-26T18:53:37.581Z,24.35
2019-01-26T18:56:05.860Z,25.65
2019-01-26T18:58:33.921Z,25.82
2019-01-26T19:01:01.843Z,28.30
2019-01-26T19:03:48.923Z,25.72
2019-01-26T19:06:16.973Z,25.30
2019-01-26T19:08:45.029Z,33.50
2019-01-26T19:11:12.940Z,31.60
2019-01-26T19:13:41.044Z,34.13
2019-01-26T19:16:08.925Z,25.82
2019-01-26T19:18:36.854Z,23.38
2019-01-26T19:21:04.885Z,23.40
2019-01-26T19:23:32.916Z,25.48
2019-01-26T19:26:01.064Z,25.68
2019-01-26T19:28:29.125Z,28.30
2019-01-26T19:30:57.332Z,28.70
2019-01-26T19:33:25.279Z,26.73
2019-01-26T19:35:53.265Z,29.17
2019-01-26T19:38:21.442Z,27.10
2019-01-26T19:40:49.416Z,25.50
2019-01-26T19:43:17.516Z,25.92
2019-01-26T19:45:45.489Z,22.22
2019-01-26T19:48:13.528Z,22.57
2019-01-26T19:50:41.573Z,22.17
2019-01-26T19:53:28.492Z,24.07
2019-01-26T19:55:56.527Z,22.10
2019-01-26T19:58:24.453Z,23.87
2019-01-26T20:00:52.419Z,24.33
2019-01-26T20:03:20.397Z,22.60
2019-01-26T20:05:48.447Z,23.42
2019-01-26T20:08:16.453Z,21.70
2019-01-26T20:10:44.373Z,23.30
2019-01-26T20:13:12.380Z,23.40
2019-01-26T20:15:40.351Z,23.97
2019-01-26T20:18:08.301Z,26.25
2019-01-26T20:20:36.613Z,24.15
2019-01-26T20:23:04.788Z,23.70
2019-01-26T20:25:32.950Z,23.52
2019-01-26T20:28:00.924Z,24.10
2019-01-26T20:30:50.069Z,26.80
2019-01-26T20:33:18.263Z,25.90
2019-01-26T20:35:46.454Z,25.23
2019-01-26T20:38:14.523Z,26.62
2019-01-26T20:40:42.459Z,26.07
2019-01-26T20:43:10.454Z,26.48
2019-01-26T20:45:38.449Z,25.65
2019-01-26T20:48:06.435Z,24.25
2019-01-26T20:50:34.471Z,26.40
2019-01-26T20:53:02.607Z,26.50
2019-01-26T20:55:30.581Z,28.73
2019-01-26T20:57:58.640Z,28.45
2019-01-26T21:00:27.782Z,30.30
2019-01-26T21:05:39.476Z,27.17
2019-01-26T21:08:07.507Z,22.75
2019-01-26T21:10:35.497Z,21.87
2019-01-26T21:15:50.782Z,20.60
2019-01-26T21:18:18.819Z,21.68
2019-01-26T21:20:46.815Z,20.35
2019-01-26T21:23:14.864Z,23.65
2019-01-26T21:25:42.992Z,23.10
2019-01-26T21:28:10.953Z,25.85
2019-01-26T21:30:38.865Z,26.25
2019-01-26T21:33:06.946Z,28.00
2019-01-26T21:35:34.905Z,27.13
2019-01-26T21:38:02.955Z,28.67
2019-01-26T21:40:50.470Z,28.80
2019-01-26T21:43:18.533Z,30.17
2019-01-26T21:45:46.475Z,30.75
2019-01-26T21:48:14.611Z,31.90
2019-01-26T21:53:25.232Z,31.12
2019-01-26T21:55:53.394Z,30.92
2019-01-26T21:58:21.355Z,31.10
2019-01-26T22:00:49.325Z,32.15
2019-01-26T22:03:17.332Z,32.55
2019-01-26T22:05:45.668Z,35.10
2019-01-26T22:08:13.689Z,32.80
2019-01-26T22:10:41.718Z,34.73
2019-01-26T22:13:09.673Z,33.78
2019-01-26T22:15:37.672Z,33.08
2019-01-26T22:18:05.708Z,32.83
2019-01-26T22:20:33.697Z,29.45
2019-01-26T22:23:01.647Z,31.07
2019-01-26T22:25:29.652Z,28.40
2019-01-26T22:27:57.769Z,31.70
2019-01-26T22:30:44.775Z,30.32
2019-01-26T22:33:12.693Z,30.17
2019-01-26T22:35:40.660Z,30.20
2019-01-26T22:38:08.692Z,26.82
2019-01-26T22:40:37.150Z,26.30
2019-01-26T22:43:05.330Z,29.10
2019-01-26T22:45:53.867Z,66.60
2019-01-26T22:48:21.761Z,34.83
2019-01-26T22:50:49.755Z,36.23
2019-01-26T22:53:17.749Z,35.85
2019-01-26T22:55:45.692Z,36.55
2019-01-26T22:58:13.691Z,33.80
2019-01-26T23:01:01.472Z,29.25
2019-01-26T23:03:40.988Z,30.60
2019-01-26T23:06:27.946Z,30.48
2019-01-26T23:08:56.301Z,24.15
2019-01-26T23:11:28.336Z,27.90
2019-01-26T23:14:15.275Z,25.48
2019-01-26T23:17:02.285Z,24.98
2019-01-26T23:19:49.308Z,27.77
2019-01-26T23:22:36.314Z,30.40
2019-01-26T23:25:23.266Z,30.55
2019-01-26T23:28:10.245Z,36.93
2019-01-26T23:30:57.207Z,35.05
2019-01-26T23:33:25.096Z,30.70
2019-01-26T23:35:53.064Z,30.37
2019-01-26T23:38:21.095Z,32.55
2019-01-26T23:40:49.366Z,31.95
2019-01-26T23:43:17.350Z,30.88
2019-01-26T23:45:45.317Z,33.53
2019-01-26T23:48:13.482Z,30.35
2019-01-26T23:50:41.756Z,29.42
2019-01-26T23:53:09.738Z,30.35
2019-01-26T23:55:37.722Z,32.58
2019-01-26T23:58:05.679Z,31.35
